Fountain Run, Kentucky
Current Conditions -  °F | °C
As of 8:55 PM on Tuesday 25 Nov 2014 (Local Time) from KGLW Reporting Station
Clear Clear  
Wind Chill: 33°   Ceiling: Unl
Heat Index: 38°   Visibility: 10mi
Dew Point: 29°   Wind: 6mph
Humidity: 70%   Direction: 350°N
Pressure: 30.16"   Gusts: NA
Location:  36.72°N, 85.97°W
Report Text: KGLW 260255Z AUTO 35005KT 10SM CLR 03/M02 A3016 RMK AO2 T00311018
Loading
Personal Weather Stations






























Interactive Weather Map New forecast layout! Learn more

10-Day Weather Forecast

Advertisements
Track Severe Weather on mobile